Архив погоды в Благодарном

Метеограмма Благодарный
Пятница, 23 Июня
Время местн. Темп Ветер Видим Явления Облачность нижн/средн/верх Атм. давл. Влжн Точка росы ВНГО R Сост. почвы Tg s
Напр Скр Прв ур.ст ур.м изм
12:00 +25.2° Ю-З 2 - 20 км - переменная облачность 747 761 -0.2 36% +8.9° 1.5 км - - - -
09:00 +22.7° З,Ю-З 1 - 20 км - переменная облачность 747 761 +0.5 63% +15.4° более 2.5 км - - - -
06:00 +16° З 1 - 20 км - ясно 747 761 +0.2 99% +15.9° более 2.5 км - Влажная (без луж) - -
03:00 +15.5° З 1 - 20 км - ясно 747 761 +0.2 95% +14.7° более 2.5 км - - - -
00:00 +16° З 1 - 20 км - ясно 746 761 +0.5 93% +14.8° более 2.5 км - - - -
Четверг, 22 Июня
Время местн. Темп Ветер Видим Явления Облачность нижн/средн/верх Атм. давл. Влжн Точка росы ВНГО R Сост. почвы Tg s
Напр Скр Прв ур.ст ур.м изм
21:00 +17.3° З 2 - 10 км слабый ливневый дождь облачно 746 760 +1.7 94% +16.4° 1 км - - - -
18:00 +21.9° З 2 12 20 км - облачно с прояснениями 744 758 +1.7 71% +16.3° 1 км 0 - - -
15:00 +28.8° З 4 - 20 км - переменная облачность 742 756 -0.6 41% +14.1° 1 км - - - -
12:00 +27.9° З 3 - 20 км - ясно 743 757 +0.1 38% +12.3° более 2.5 км - - - -
09:00 +25.2° З 3 - 20 км - ясно 743 757 +0.1 47% +13° более 2.5 км - - - -
06:00 +17.8° З 1 - 20 км - ясно 743 757 -0.4 77% +13.8° более 2.5 км - Влажная (без луж) - -
03:00 +15.5° З 1 - 20 км - ясно 743 757 -0.4 94% +14.6° более 2.5 км - - - -
00:00 +16.1° штиль 0 - 20 км - ясно 743 757 +0.2 93% +15° более 2.5 км - - - -
Среда, 21 Июня
Время местн. Темп Ветер Видим Явления Облачность нижн/средн/верх Атм. давл. Влжн Точка росы ВНГО R Сост. почвы Tg s
Напр Скр Прв ур.ст ур.м изм
21:00 +20.4° З 1 - 20 км - переменная облачность 743 757 +1 74% +15.6° 1 км - - - -
18:00 +26.9° З,С-З 2 - 20 км - переменная облачность 742 756 -0.4 45% +14.1° 1 км - - - -
15:00 +26.4° З,Ю-З 2 - 20 км - переменная облачность 742 756 +0.1 47% +14.2° 1.5 км - - - -
12:00 +22.9° З,Ю-З 2 - 20 км - преимущественно облачно 743 757 +0.1 60% +14.7° 1 км - - - -
09:00 +19.6° З 2 - 20 км небо без изменений {ливневые осадки} преимущественно облачно 743 757 0 74% +14.9° 1 км - - - -
06:00 +15.7° штиль 0 - 20 км небо без изменений {ливневые осадки} облачно 743 758 +0.2 95% +14.9° 1 км 0.5 Влажная (без луж) +16° -
03:00 +15.4° Ю 1 - 20 км - облачно 743 757 +0.1 96% +14.7° 1 км - - - -
00:00 +15.4° З 1 - 20 км - облачно 743 758 +0.1 91% +14° 1 км - - - -
Вторник, 20 Июня
Время местн. Темп Ветер Видим Явления Облачность нижн/средн/верх Атм. давл. Влжн Точка росы ВНГО R Сост. почвы Tg s
Напр Скр Прв ур.ст ур.м изм
21:00 +15.1° З 1 - 20 км небо без изменений {ливневые осадки} облачно 743 758 -0.2 95% +14.3° 1 км - - - -
18:00 +15.7° З 1 - 10 км слабый ливневый дождь облачно 744 758 +0.1 93% +14.5° 1 км 8 - - -
15:00 +17.4° З 1 - 10 км слабый ливневый дождь облачно 743 758 +0.5 93% +16.3° 1 км - - - -
12:00 +19° В 1 - 10 км слабый ливневый дождь облачно 743 757 +0.4 72% +13.9° 1 км - - - -
09:00 +19.2° штиль 0 - 20 км - облачно 743 757 0 70% +13.7° 1 км - - - -